4XARY LLIB-LLIB

Flight info

Callsign 4XARY
Flight time 0h 6m
Altitude 1700
Route CVFR
Aircraft C152/L-VD/A

Departure

Time 2026-04-30 20:00
Airport Rosh Pina Airport (LLIB)

Arrival

Time 2026-04-30 20:06
Airport Rosh Pina Airport (LLIB)
Time Latitude Longitude Altitude Speed Heading
2026-04-30 19:45 32.97758 35.57250 902 ft 0 kts 97°
2026-04-30 19:55 32.97758 35.57254 902 ft 0 kts 90°
2026-04-30 19:56 32.97761 35.57265 902 ft 0 kts 41°
2026-04-30 19:56 32.97781 35.57289 901 ft 8 kts 52°
2026-04-30 19:56 32.97802 35.57325 899 ft 7 kts 56°
2026-04-30 19:56 32.97804 35.57328 899 ft 1 kts 56°
2026-04-30 19:57 32.97827 35.57361 894 ft 0 kts 11°
2026-04-30 19:57 32.97884 35.57336 895 ft 8 kts 329°
2026-04-30 19:57 32.97904 35.57322 895 ft 0 kts 329°
2026-04-30 19:58 32.97924 35.57308 895 ft 19 kts 329°
2026-04-30 19:58 32.98200 35.57121 895 ft 67 kts 332°
2026-04-30 19:59 32.98629 35.56829 1028 ft 70 kts 326°
2026-04-30 19:59 32.99031 35.56487 1175 ft 72 kts 319°
2026-04-30 19:59 32.99940 35.56336 1477 ft 71 kts 34°
2026-04-30 20:00 33.00255 35.56772 1658 ft 69 kts 66°
2026-04-30 20:00 33.00172 35.57370 1703 ft 82 kts 124°
2026-04-30 20:00 32.99691 35.57783 1730 ft 90 kts 152°
2026-04-30 20:00 32.99317 35.58342 1772 ft 91 kts 110°
2026-04-30 20:01 32.98413 35.59305 1791 ft 92 kts 154°
2026-04-30 20:01 32.97852 35.59642 1839 ft 87 kts 155°
2026-04-30 20:01 32.97311 35.59940 1864 ft 86 kts 165°
2026-04-30 20:02 32.96544 35.59089 1691 ft 81 kts 266°
2026-04-30 20:02 32.96640 35.58432 1469 ft 84 kts 300°
2026-04-30 20:03 32.97500 35.57629 1328 ft 69 kts 326°
2026-04-30 20:03 32.97599 35.57170 1512 ft 63 kts 236°
2026-04-30 20:03 32.97245 35.57262 1682 ft 64 kts 105°
2026-04-30 20:03 32.97511 35.57620 1775 ft 74 kts 360°
2026-04-30 20:04 32.98055 35.57533 1828 ft 82 kts 350°
2026-04-30 20:04 32.98633 35.57412 1893 ft 84 kts 352°
2026-04-30 20:04 32.99217 35.57520 1942 ft 89 kts 27°
2026-04-30 20:05 32.99233 35.58667 1867 ft 83 kts 133°
2026-04-30 20:05 32.98904 35.58924 1872 ft 82 kts 154°
2026-04-30 20:05 32.97964 35.59213 1775 ft 85 kts 202°
2026-04-30 20:06 32.97569 35.58700 1519 ft 88 kts 247°
2026-04-30 20:06 32.97423 35.58030 1323 ft 84 kts 277°
2026-04-30 20:06 32.97678 35.57495 1037 ft 66 kts 321°
2026-04-30 20:06 32.98015 35.57249 895 ft 45 kts 328°
2026-04-30 20:07 32.98232 35.57101 895 ft 29 kts 332°
2026-04-30 20:07 32.98368 35.57006 894 ft 17 kts 335°
2026-04-30 20:07 32.98400 35.56982 894 ft 15 kts 144°
2026-04-30 20:08 32.98317 35.57044 893 ft 15 kts 150°
2026-04-30 20:08 32.98214 35.57113 895 ft 18 kts 149°
2026-04-30 20:08 32.98095 35.57193 895 ft 21 kts 150°
2026-04-30 20:08 32.97978 35.57273 895 ft 18 kts 150°
2026-04-30 20:09 32.97881 35.57338 898 ft 15 kts 150°
2026-04-30 20:09 32.97825 35.57361 898 ft 5 kts 226°
2026-04-30 20:09 32.97799 35.57318 900 ft 4 kts 233°
2026-04-30 20:10 32.97758 35.57251 902 ft 0 kts 278°
2026-04-30 20:10 32.97759 35.57242 902 ft 0 kts 270°
2026-04-30 20:11 32.97756 35.57237 902 ft 3 kts 201°
2026-04-30 20:11 32.97738 35.57240 902 ft 3 kts 128°
2026-04-30 20:12 32.97741 35.57254 902 ft 0 kts 65°